This is the latest recevied weather packets stored in our database for station/object N3NDE. If no packets are shown the sender has not sent any weather packets the latest 1 day(s).
| Time | Temp. | Humidity | Pressure | Rain* | Wind** | Luminosity | Snow |
|---|---|---|---|---|---|---|---|
| 1778045115 | 3.33° C | 85% | 1012.9 hPa | 0 mm | 0.89 m/s, 67° | 0 W/m² | - |
| 1778044812 | 3.89° C | 83% | 1013.1 hPa | 0 mm | 0.45 m/s, 57° | 0 W/m² | - |
| 1778044509 | 4.44° C | 82% | 1012.9 hPa | 0 mm | 0 m/s | 0 W/m² | - |
| 1778044206 | 3.89° C | 82% | 1012.9 hPa | 0 mm | 0 m/s | 0 W/m² | - |
| 1778043904 | 4.44° C | 82% | 1012.9 hPa | 0 mm | 0.89 m/s, 61° | 0 W/m² | - |
| 1778043601 | 4.44° C | 81% | 1012.9 hPa | 0 mm | 0.89 m/s, 77° | 0 W/m² | - |
| 1778043297 | 4.44° C | 81% | 1012.9 hPa | 0 mm | 1.34 m/s, 72° | 0 W/m² | - |
| 1778042994 | 5° C | 81% | 1012.9 hPa | 0 mm | 0 m/s | 0 W/m² | - |
| 1778042692 | 5° C | 79% | 1012.7 hPa | 0 mm | 0 m/s | 0 W/m² | - |
| 1778042389 | 5.56° C | 78% | 1012.9 hPa | 0 mm | 0 m/s | 0 W/m² | - |
| 1778042086 | 5.56° C | 76% | 1013 hPa | 0 mm | 0 m/s | 0 W/m² | - |
| 1778041784 | 5.56° C | 76% | 1012.9 hPa | 0 mm | 0 m/s | 0 W/m² | - |
| 1778041483 | 6.11° C | 74% | 1012.9 hPa | 0 mm | 0 m/s | 0 W/m² | - |
| 1778041181 | 6.11° C | 73% | 1012.9 hPa | 0 mm | 0 m/s | 0 W/m² | - |
| 1778040878 | 6.67° C | 72% | 1012.8 hPa | 0 mm | 0.89 m/s, 55° | 0 W/m² | - |
| 1778040575 | 6.67° C | 74% | 1013 hPa | 0 mm | 0.89 m/s, 62° | 0 W/m² | - |
| 1778040273 | 6.67° C | 73% | 1012.9 hPa | 0 mm | 1.34 m/s, 88° | 0 W/m² | - |
| 1778039969 | 7.22° C | 71% | 1013.3 hPa | 0 mm | 1.79 m/s, 52° | 0 W/m² | - |
| 1778039666 | 7.22° C | 68% | 1012.9 hPa | 0 mm | 1.79 m/s, 77° | 0 W/m² | - |
| 1778039363 | 6.67° C | 72% | 1012.9 hPa | 0 mm | 2.68 m/s, 61° | 0 W/m² | - |
| 1778039060 | 6.67° C | 73% | 1013 hPa | 0 mm | 2.24 m/s, 59° | 0 W/m² | - |
| 1778038757 | 6.67° C | 76% | 1013 hPa | 0 mm | 0.89 m/s, 68° | 0 W/m² | - |
| 1778038454 | 6.11° C | 87% | 1013 hPa | 0 mm | 0 m/s | 0 W/m² | - |
| 1778038151 | 5.56° C | 89% | 1013.1 hPa | 0 mm | 4.02 m/s, 44° | 0 W/m² | - |
| 1778037848 | 5° C | 90% | 1013 hPa | 0 mm | 1.79 m/s, 54° | 0 W/m² | - |
* Rain latest hour (hover to see other rain measurements)
** Current wind speed in m/s (hover to see current wind gust speed)